Time;durP1;ratioP1;P1;durP2;ratioP2;P2;SDS_P1;SDS_P2;PMS_P1;PMS_P2;Temp;Humidity;BMP_temperature;BMP_pressure;BME280_temperature;BME280_humidity;BME280_pressure;Samples;Min_cycle;Max_cycle;Signal;HPM_P1;HPM_P2
2022/06/01 00:00:29;;;;;;;685.58;490.30;;;10.50;82.40;;;;;;5017636;28;20030;-71
2022/06/01 00:02:56;;;;;;;733.00;546.88;;;10.50;82.50;;;;;;4997600;28;20037;-71
2022/06/01 00:05:22;;;;;;;638.47;462.60;;;10.50;82.30;;;;;;5023491;28;20387;-71
2022/06/01 00:07:49;;;;;;;564.55;434.60;;;10.50;83.10;;;;;;5024062;28;20099;-71
2022/06/01 00:10:15;;;;;;;709.83;528.35;;;10.50;82.90;;;;;;5019224;28;20038;-71
2022/06/01 00:12:41;;;;;;;632.83;439.38;;;10.50;82.80;;;;;;5018976;28;20041;-71
2022/06/01 00:15:09;;;;;;;586.45;451.77;;;10.50;82.90;;;;;;4997110;28;20049;-69
2022/06/01 00:17:34;;;;;;;664.40;469.25;;;10.40;82.70;;;;;;5016977;28;20069;-71
2022/06/01 00:20:00;;;;;;;773.27;514.47;;;10.40;82.70;;;;;;5020727;28;20080;-71
2022/06/01 00:22:26;;;;;;;819.67;608.10;;;10.40;82.90;;;;;;5021606;28;20041;-71
2022/06/01 00:24:52;;;;;;;643.17;515.40;;;10.40;82.90;;;;;;4983073;28;20285;-71
2022/06/01 00:27:18;;;;;;;675.27;526.73;;;10.40;83.10;;;;;;5008325;28;20077;-71
2022/06/01 00:29:44;;;;;;;756.70;505.33;;;10.40;83.30;;;;;;5021219;28;20434;-71
2022/06/01 00:32:13;;;;;;;723.22;514.60;;;10.40;83.40;;;;;;5020971;28;20037;-71
2022/06/01 00:34:39;;;;;;;845.00;650.95;;;10.40;83.40;;;;;;5028493;28;20152;-71
2022/06/01 00:37:07;;;;;;;753.42;571.00;;;10.40;83.50;;;;;;5015901;28;20079;-71
2022/06/01 00:39:33;;;;;;;747.15;555.65;;;10.40;83.70;;;;;;5019553;28;20037;-71
2022/06/01 00:42:13;;;;;;;710.70;523.73;;;10.40;83.20;;;;;;4996252;28;20029;-71
2022/06/01 00:44:40;;;;;;;778.35;596.05;;;10.40;83.30;;;;;;5021150;28;20042;-71
2022/06/01 00:47:05;;;;;;;742.90;577.40;;;10.40;83.30;;;;;;5005999;28;20041;-71
2022/06/01 00:49:33;;;;;;;821.87;601.97;;;10.50;83.20;;;;;;5012916;28;20120;-71
2022/06/01 00:52:00;;;;;;;750.20;559.28;;;10.40;83.00;;;;;;5023073;28;20045;-71
2022/06/01 00:54:26;;;;;;;695.00;560.28;;;10.40;82.90;;;;;;4999120;28;20061;-71
2022/06/01 00:56:56;;;;;;;672.08;549.78;;;10.50;82.90;;;;;;4997124;28;22133;-71
2022/06/01 00:59:26;;;;;;;697.60;502.42;;;10.50;83.00;;;;;;5024580;28;20120;-71
2022/06/01 01:01:55;;;;;;;608.65;458.27;;;10.40;82.80;;;;;;5024453;28;20531;-71
2022/06/01 01:04:23;;;;;;;667.42;507.98;;;10.40;82.80;;;;;;5027023;28;20088;-71
2022/06/01 01:06:49;;;;;;;780.35;617.13;;;10.40;82.70;;;;;;4993539;28;20046;-71
2022/06/01 01:09:15;;;;;;;637.63;492.80;;;10.30;82.80;;;;;;5007096;28;20158;-71
2022/06/01 01:11:46;;;;;;;738.40;605.38;;;10.30;82.80;;;;;;5019824;28;20469;-71
2022/06/01 01:14:14;;;;;;;654.65;501.38;;;10.20;83.00;;;;;;5025157;28;20045;-71
2022/06/01 01:16:40;;;;;;;662.88;514.85;;;10.10;83.00;;;;;;5010540;28;20044;-71
2022/06/01 01:19:29;;;;;;;699.47;560.00;;;10.10;83.00;;;;;;5025165;28;20095;-71
2022/06/01 01:22:11;;;;;;;784.35;598.50;;;10.00;82.90;;;;;;5019673;28;20069;-71
2022/06/01 01:24:58;;;;;;;817.83;670.67;;;9.90;83.10;;;;;;5018214;28;20081;-71
2022/06/01 01:27:24;;;;;;;825.80;706.88;;;9.90;83.60;;;;;;5018784;28;20132;-70
2022/06/01 01:29:51;;;;;;;814.60;632.30;;;9.80;83.50;;;;;;5024832;28;20133;-70
2022/06/01 01:32:17;;;;;;;828.08;684.50;;;9.70;83.50;;;;;;5026712;28;20060;-70
2022/06/01 01:34:45;;;;;;;734.93;607.83;;;9.70;83.60;;;;;;5011589;28;20045;-70
2022/06/01 01:37:25;;;;;;;804.35;669.28;;;9.60;83.60;;;;;;5025161;28;20491;-70
2022/06/01 01:39:53;;;;;;;613.00;541.03;;;9.60;83.70;;;;;;5022199;28;20483;-70
2022/06/01 01:42:19;;;;;;;690.42;548.00;;;9.60;83.80;;;;;;5005964;28;20068;-70
2022/06/01 01:44:58;;;;;;;589.30;509.83;;;9.60;83.80;;;;;;5025506;28;20042;-70
2022/06/01 01:47:24;;;;;;;711.95;584.13;;;9.60;84.00;;;;;;5010486;28;20042;-70
2022/06/01 01:49:50;;;;;;;773.80;642.47;;;9.60;84.00;;;;;;5031770;28;20037;-70
2022/06/01 01:52:18;;;;;;;599.77;491.70;;;9.60;83.90;;;;;;5007149;28;20119;-70
2022/06/01 01:55:00;;;;;;;771.45;635.03;;;9.60;83.90;;;;;;5005460;28;20057;-70
2022/06/01 01:57:37;;;;;;;750.83;628.47;;;9.50;83.90;;;;;;5030674;28;20054;-70
2022/06/01 02:00:05;;;;;;;679.30;605.45;;;9.50;84.10;;;;;;5018843;28;20041;-70
2022/06/01 02:02:46;;;;;;;659.47;562.13;;;9.40;83.90;;;;;;5021191;28;20403;-70
2022/06/01 02:08:35;;;;;;;844.83;730.38;;;9.40;84.00;;;;;;5035326;28;20175;-70
2022/06/01 02:13:56;;;;;;;881.15;766.33;;;9.20;83.90;;;;;;5035611;28;20049;-71
2022/06/01 02:16:26;;;;;;;811.03;722.97;;;9.20;83.90;;;;;;5037962;28;20505;-71
2022/06/01 02:18:57;;;;;;;803.78;692.67;;;9.20;83.90;;;;;;5018620;28;20493;-71
2022/06/01 02:21:25;;;;;;;739.03;654.45;;;9.10;84.10;;;;;;5024489;28;20072;-70
2022/06/01 02:23:53;;;;;;;716.60;643.78;;;9.10;84.10;;;;;;5041764;28;20073;-70
2022/06/01 02:26:20;;;;;;;849.50;745.08;;;9.00;84.10;;;;;;5022102;28;20451;-71
2022/06/01 02:28:51;;;;;;;835.47;739.53;;;9.00;84.20;;;;;;5037328;28;20124;-71
2022/06/01 02:31:18;;;;;;;703.45;624.75;;;9.00;84.30;;;;;;5005676;28;20064;-70
2022/06/01 02:33:47;;;;;;;815.30;728.22;;;9.00;84.20;;;;;;5020963;28;20394;-70
2022/06/01 02:36:16;;;;;;;809.50;720.63;;;9.10;84.40;;;;;;5007840;28;20485;-70
2022/06/01 02:38:46;;;;;;;847.88;719.50;;;9.10;84.30;;;;;;5004776;28;20037;-70
2022/06/01 02:43:56;;;;;;;873.20;750.65;;;9.20;84.40;;;;;;5018486;28;20445;-70
2022/06/01 02:46:22;;;;;;;799.92;703.72;;;9.30;84.50;;;;;;5006670;28;20063;-71
2022/06/01 02:48:48;;;;;;;773.07;675.70;;;9.30;84.50;;;;;;5021592;28;20042;-71
2022/06/01 02:51:15;;;;;;;870.10;776.60;;;9.40;84.40;;;;;;5018409;28;20125;-71
2022/06/01 02:53:41;;;;;;;706.85;607.45;;;9.40;84.50;;;;;;5035671;28;20308;-71
2022/06/01 02:56:07;;;;;;;791.43;663.27;;;9.50;84.40;;;;;;5023166;28;20048;-71
2022/06/01 02:58:34;;;;;;;690.40;591.77;;;9.50;84.40;;;;;;4983121;28;20481;-71
2022/06/01 03:01:01;;;;;;;754.95;650.22;;;9.50;84.30;;;;;;5007311;28;20045;-71
2022/06/01 03:03:26;;;;;;;842.53;705.22;;;9.50;84.30;;;;;;5013842;28;20037;-71
2022/06/01 03:05:52;;;;;;;799.63;706.50;;;9.50;84.20;;;;;;5006167;28;20490;-71
2022/06/01 03:08:18;;;;;;;705.53;608.57;;;9.60;84.30;;;;;;4989846;28;20068;-71
2022/06/01 03:10:44;;;;;;;845.83;696.90;;;9.60;84.30;;;;;;5007083;28;20464;-71
2022/06/01 03:13:11;;;;;;;631.42;523.35;;;9.60;84.30;;;;;;5016249;28;20042;-71
2022/06/01 03:15:37;;;;;;;896.28;783.97;;;9.60;84.40;;;;;;5007534;28;20057;-71
2022/06/01 03:18:03;;;;;;;836.20;730.03;;;9.60;84.30;;;;;;5008564;28;20043;-71
2022/06/01 03:20:29;;;;;;;654.78;573.25;;;9.70;84.30;;;;;;5021040;28;20037;-71
2022/06/01 03:22:57;;;;;;;797.25;656.78;;;9.70;84.30;;;;;;5025547;28;20509;-71
2022/06/01 03:25:24;;;;;;;748.53;596.83;;;9.70;84.30;;;;;;5031888;28;20537;-71
2022/06/01 03:27:51;;;;;;;817.20;643.35;;;9.80;84.30;;;;;;5006898;28;20224;-71
2022/06/01 03:30:18;;;;;;;650.67;537.08;;;9.80;84.40;;;;;;4991878;28;20397;-71
2022/06/01 03:32:45;;;;;;;833.42;687.90;;;9.80;84.40;;;;;;5019939;28;20046;-70
2022/06/01 03:35:12;;;;;;;884.90;660.80;;;9.80;84.40;;;;;;5008278;28;20071;-70
2022/06/01 03:37:41;;;;;;;427.20;368.27;;;9.90;84.80;;;;;;5014804;28;20037;-70
2022/06/01 03:40:07;;;;;;;21.15;17.67;;;9.90;85.30;;;;;;4990350;28;20048;-71
2022/06/01 03:42:34;;;;;;;21.98;17.48;;;10.00;85.00;;;;;;5011227;28;20041;-71
2022/06/01 03:47:45;;;;;;;20.30;18.20;;;10.00;84.70;;;;;;5033905;28;20052;-71
2022/06/01 03:50:12;;;;;;;21.02;16.35;;;10.10;84.60;;;;;;5009317;28;20041;-71
2022/06/01 03:52:38;;;;;;;28.85;17.45;;;10.10;84.50;;;;;;5020719;28;20465;-71
2022/06/01 03:55:08;;;;;;;22.40;17.30;;;10.20;84.40;;;;;;5003914;28;20062;-71
2022/06/01 03:57:35;;;;;;;20.40;16.45;;;10.20;84.50;;;;;;4991409;28;20042;-71
2022/06/01 04:00:02;;;;;;;19.83;17.73;;;10.30;84.30;;;;;;4985917;28;20448;-71
2022/06/01 04:02:28;;;;;;;19.67;15.77;;;10.30;84.20;;;;;;5007610;28;20041;-71
2022/06/01 04:04:54;;;;;;;19.60;14.90;;;10.40;84.10;;;;;;5006512;28;20038;-71
2022/06/01 04:07:19;;;;;;;17.70;14.77;;;10.40;84.00;;;;;;5016764;28;20042;-71
2022/06/01 04:09:45;;;;;;;18.83;15.67;;;10.50;83.80;;;;;;5008466;28;20103;-71
2022/06/01 04:12:11;;;;;;;19.67;15.77;;;10.50;83.90;;;;;;5002732;28;20059;-71
2022/06/01 04:14:36;;;;;;;16.13;13.40;;;10.50;83.70;;;;;;5007276;28;20045;-71
2022/06/01 04:17:02;;;;;;;19.33;15.83;;;10.60;83.80;;;;;;5007682;28;20137;-71
2022/06/01 04:19:28;;;;;;;17.73;15.83;;;10.60;83.60;;;;;;5023340;28;20033;-71
2022/06/01 04:21:54;;;;;;;17.23;14.10;;;10.60;83.50;;;;;;5001857;28;20038;-71
2022/06/01 04:24:26;;;;;;;20.30;17.05;;;10.60;83.40;;;;;;5000681;28;20034;-71
2022/06/01 04:26:51;;;;;;;19.33;14.90;;;10.60;83.40;;;;;;4998966;28;20049;-71
2022/06/01 04:29:17;;;;;;;15.67;13.60;;;10.60;83.30;;;;;;5026447;28;20425;-71
2022/06/01 04:31:44;;;;;;;15.63;12.30;;;10.60;83.30;;;;;;5003740;28;20132;-71
2022/06/01 04:34:10;;;;;;;14.10;12.25;;;10.60;83.80;;;;;;4995086;28;20613;-71
2022/06/01 04:36:36;;;;;;;21.70;13.68;;;10.60;83.80;;;;;;5003976;28;20038;-71
2022/06/01 04:39:03;;;;;;;34.47;16.90;;;10.60;84.30;;;;;;5010575;28;20045;-71
2022/06/01 04:41:28;;;;;;;28.92;15.70;;;10.60;84.00;;;;;;5004066;28;20073;-71
2022/06/01 04:43:54;;;;;;;15.80;13.57;;;10.60;84.40;;;;;;4991386;28;20068;-71
2022/06/01 04:46:20;;;;;;;34.47;18.40;;;10.60;84.40;;;;;;5028967;28;20034;-71
2022/06/01 04:48:45;;;;;;;22.40;14.07;;;10.60;84.40;;;;;;5012110;28;20049;-71
2022/06/01 04:51:11;;;;;;;22.27;16.57;;;10.60;84.20;;;;;;5029580;28;20467;-71
2022/06/01 04:53:37;;;;;;;21.20;18.07;;;10.60;84.10;;;;;;5028564;28;20122;-71
2022/06/01 04:56:02;;;;;;;18.70;16.23;;;10.60;84.10;;;;;;5021821;28;20494;-71
2022/06/01 04:58:28;;;;;;;30.93;21.20;;;10.60;84.30;;;;;;5003002;28;20073;-71
2022/06/01 05:00:54;;;;;;;43.57;20.10;;;10.60;84.50;;;;;;5020586;28;20048;-71
2022/06/01 05:03:20;;;;;;;27.93;19.60;;;10.60;84.40;;;;;;5010233;28;20457;-71
2022/06/01 05:05:46;;;;;;;34.83;19.13;;;10.60;84.30;;;;;;4992875;28;20045;-71
2022/06/01 05:08:13;;;;;;;22.75;18.80;;;10.60;84.40;;;;;;5007635;28;20041;-71
2022/06/01 05:10:40;;;;;;;27.83;20.77;;;10.70;84.40;;;;;;5037115;28;20556;-71
2022/06/01 05:13:06;;;;;;;27.75;22.75;;;10.70;84.50;;;;;;5007881;28;20472;-71
2022/06/01 05:15:32;;;;;;;29.93;24.97;;;10.70;84.50;;;;;;5010182;28;20053;-71
2022/06/01 05:17:58;;;;;;;28.17;24.13;;;10.80;84.50;;;;;;5023674;28;20040;-71
2022/06/01 05:20:24;;;;;;;26.93;23.77;;;10.90;84.50;;;;;;5026050;28;20064;-71
2022/06/01 05:22:49;;;;;;;39.67;27.47;;;11.00;84.60;;;;;;4989542;28;20053;-71
2022/06/01 05:25:15;;;;;;;40.57;27.73;;;11.10;84.40;;;;;;5003039;28;20057;-71
2022/06/01 05:27:41;;;;;;;33.73;24.80;;;11.10;84.40;;;;;;5026119;28;20037;-71
2022/06/01 05:30:08;;;;;;;27.90;23.03;;;11.20;84.20;;;;;;4992989;28;20508;-71
2022/06/01 05:32:33;;;;;;;30.67;22.55;;;11.30;83.70;;;;;;5025155;28;20045;-71
2022/06/01 05:34:59;;;;;;;33.60;26.60;;;11.40;83.50;;;;;;5010417;28;20414;-71
2022/06/01 05:37:25;;;;;;;26.27;23.40;;;11.60;83.80;;;;;;5027247;28;20034;-71
2022/06/01 05:39:51;;;;;;;27.07;23.00;;;11.80;84.10;;;;;;5027288;28;20107;-71
2022/06/01 05:42:17;;;;;;;33.72;27.88;;;12.10;83.70;;;;;;5027069;28;20616;-71
2022/06/01 05:44:44;;;;;;;41.77;26.07;;;12.30;82.90;;;;;;5027239;28;20128;-71
2022/06/01 05:47:09;;;;;;;32.80;29.40;;;12.50;82.00;;;;;;5027793;28;20529;-71
2022/06/01 05:49:35;;;;;;;56.07;31.03;;;12.70;80.10;;;;;;5016107;28;20585;-71
2022/06/01 05:52:01;;;;;;;19.03;16.83;;;12.90;80.00;;;;;;5009730;28;20635;-71
2022/06/01 05:54:27;;;;;;;31.37;23.40;;;13.00;79.70;;;;;;5010086;28;20387;-71
2022/06/01 05:56:53;;;;;;;35.03;21.13;;;13.10;78.50;;;;;;5001736;28;20300;-71
2022/06/01 05:59:18;;;;;;;27.13;22.23;;;13.30;78.60;;;;;;5003653;28;20148;-71
2022/06/01 06:01:44;;;;;;;69.53;29.93;;;13.40;78.40;;;;;;5023627;28;20048;-71
2022/06/01 06:04:10;;;;;;;42.23;21.57;;;13.50;77.40;;;;;;4978142;28;20037;-71
2022/06/01 06:06:36;;;;;;;35.47;18.13;;;13.60;76.90;;;;;;4994847;28;20128;-71
2022/06/01 06:09:06;;;;;;;35.27;17.43;;;13.50;75.30;;;;;;5010312;28;20478;-71
2022/06/01 06:11:34;;;;;;;35.67;20.87;;;13.40;74.60;;;;;;5010193;28;20750;-69
2022/06/01 06:14:00;;;;;;;47.57;26.10;;;13.50;75.20;;;;;;5007373;28;20627;-69
2022/06/01 06:16:29;;;;;;;31.23;19.57;;;13.50;74.00;;;;;;5022217;28;20310;-69
2022/06/01 06:18:56;;;;;;;35.53;24.13;;;13.50;73.50;;;;;;5008538;28;20328;-69
2022/06/01 06:21:26;;;;;;;52.03;22.23;;;13.40;73.90;;;;;;5009910;28;20288;-69
2022/06/01 06:23:53;;;;;;;52.30;25.20;;;13.30;73.90;;;;;;5026428;28;20367;-69
2022/06/01 06:26:20;;;;;;;30.57;24.73;;;13.30;74.50;;;;;;5010277;28;20345;-69
2022/06/01 06:28:47;;;;;;;18.80;16.63;;;13.30;74.70;;;;;;5009754;28;20717;-69
2022/06/01 06:31:13;;;;;;;21.67;19.17;;;13.20;74.50;;;;;;5026506;28;20781;-69
2022/06/01 06:33:40;;;;;;;48.13;23.33;;;13.20;74.50;;;;;;4999641;28;20291;-69
2022/06/01 06:36:08;;;;;;;44.37;26.87;;;13.20;74.60;;;;;;5026472;28;20489;-69
2022/06/01 06:38:39;;;;;;;45.40;24.57;;;13.20;74.80;;;;;;5009893;28;20303;-69
2022/06/01 06:41:05;;;;;;;31.97;22.23;;;13.20;74.70;;;;;;5041847;28;20683;-69
2022/06/01 06:43:34;;;;;;;31.70;25.67;;;13.20;74.60;;;;;;5026178;28;20330;-69
2022/06/01 06:46:02;;;;;;;22.53;19.47;;;13.20;75.20;;;;;;5025734;28;20284;-69
2022/06/01 06:48:28;;;;;;;34.57;22.40;;;13.30;75.00;;;;;;5038856;28;20603;-69
2022/06/01 06:50:55;;;;;;;30.13;19.07;;;13.40;75.00;;;;;;5023360;28;20297;-69
2022/06/01 06:53:22;;;;;;;34.00;22.63;;;13.50;74.80;;;;;;5007241;28;20299;-69
2022/06/01 06:55:48;;;;;;;37.53;20.97;;;13.70;74.30;;;;;;5010024;28;20494;-69
2022/06/01 06:58:14;;;;;;;57.30;27.67;;;13.90;73.60;;;;;;5023669;28;20279;-69
2022/06/01 07:00:40;;;;;;;48.07;28.00;;;14.00;72.90;;;;;;5011016;28;20334;-72
2022/06/01 07:03:09;;;;;;;35.43;22.70;;;14.00;72.30;;;;;;4980054;28;20061;-71
2022/06/01 07:08:18;;;;;;;53.40;27.47;;;14.60;72.00;;;;;;5021926;28;20324;-71
2022/06/01 07:10:44;;;;;;;40.80;24.50;;;14.90;71.20;;;;;;5023422;28;20323;-71
2022/06/01 07:13:10;;;;;;;124.43;43.60;;;15.10;71.10;;;;;;5009448;28;20045;-71
2022/06/01 07:15:36;;;;;;;87.17;29.70;;;15.20;71.90;;;;;;5019012;28;20041;-71
2022/06/01 07:18:03;;;;;;;75.73;27.80;;;15.20;71.90;;;;;;4989023;28;20124;-71
2022/06/01 07:20:29;;;;;;;64.97;30.43;;;15.30;71.90;;;;;;5006760;28;20037;-70
2022/06/01 07:22:56;;;;;;;94.47;40.37;;;15.40;71.70;;;;;;4985818;28;20283;-71
2022/06/01 07:25:22;;;;;;;72.70;33.27;;;15.40;70.60;;;;;;5036096;28;20292;-71
2022/06/01 07:27:51;;;;;;;36.60;28.07;;;15.30;70.00;;;;;;5008926;28;20787;-71
2022/06/01 07:30:17;;;;;;;93.33;45.13;;;15.40;69.70;;;;;;5022543;28;20283;-70
2022/06/01 07:32:47;;;;;;;96.47;43.60;;;15.60;68.30;;;;;;5015890;28;20272;-70
2022/06/01 07:35:15;;;;;;;170.10;65.43;;;15.70;68.20;;;;;;5021493;28;20944;-70
2022/06/01 07:43:11;;;;;;;98.88;49.72;;;15.60;66.00;;;;;;5041667;28;20052;-70
2022/06/01 07:45:41;;;;;;;114.87;63.60;;;15.70;66.60;;;;;;5024955;28;20128;-70
2022/06/01 07:48:07;;;;;;;134.40;55.43;;;15.60;64.70;;;;;;5021507;28;20279;-70
2022/06/01 07:50:34;;;;;;;138.80;64.30;;;15.50;64.60;;;;;;5024629;28;21231;-70
2022/06/01 07:53:02;;;;;;;165.57;66.03;;;15.50;64.80;;;;;;5021242;28;20295;-70
2022/06/01 07:55:28;;;;;;;160.20;73.20;;;15.40;64.40;;;;;;5008045;28;20670;-71
2022/06/01 07:57:54;;;;;;;147.40;65.47;;;15.40;63.80;;;;;;5024122;28;20789;-70
2022/06/01 08:00:21;;;;;;;89.57;41.13;;;15.50;64.10;;;;;;5007858;28;20284;-70
2022/06/01 08:02:47;;;;;;;142.87;56.73;;;15.80;64.40;;;;;;5025234;28;20044;-70
2022/06/01 08:05:15;;;;;;;164.10;70.97;;;16.00;63.90;;;;;;5010046;28;20496;-70
2022/06/01 08:07:42;;;;;;;146.93;63.87;;;16.30;62.90;;;;;;5025225;28;20045;-70
2022/06/01 08:10:08;;;;;;;177.63;69.67;;;16.40;62.00;;;;;;5008512;28;20759;-70
2022/06/01 08:15:19;;;;;;;226.83;100.30;;;16.60;61.70;;;;;;5018172;28;20284;-70
2022/06/01 08:17:47;;;;;;;198.90;81.97;;;16.50;59.90;;;;;;5015533;28;20303;-70
2022/06/01 08:20:13;;;;;;;193.77;82.60;;;16.40;60.30;;;;;;5028108;28;20304;-70
2022/06/01 08:22:40;;;;;;;257.10;91.87;;;16.50;61.00;;;;;;5028519;28;20383;-70
2022/06/01 08:25:07;;;;;;;174.43;77.07;;;16.60;59.60;;;;;;5028710;28;20324;-70
2022/06/01 08:27:33;;;;;;;171.47;65.87;;;16.70;60.50;;;;;;5011275;28;20299;-70
2022/06/01 08:29:59;;;;;;;170.67;80.50;;;16.90;61.00;;;;;;5004616;28;20292;-71
2022/06/01 08:32:25;;;;;;;150.90;80.67;;;17.10;61.30;;;;;;5021027;28;20088;-71
2022/06/01 08:34:50;;;;;;;221.07;89.83;;;17.20;59.80;;;;;;5025027;28;20091;-71
2022/06/01 08:37:16;;;;;;;199.07;76.13;;;17.30;60.40;;;;;;5027972;28;20449;-71
2022/06/01 08:39:42;;;;;;;263.30;109.03;;;17.50;60.10;;;;;;5028489;28;20509;-71
2022/06/01 08:42:13;;;;;;;185.17;80.40;;;17.40;59.50;;;;;;5027237;28;20348;-71
2022/06/01 08:44:41;;;;;;;239.20;102.93;;;17.30;59.10;;;;;;5026620;28;20111;-71
2022/06/01 08:47:16;;;;;;;179.80;84.33;;;17.20;59.30;;;;;;5028185;28;20299;-71
2022/06/01 08:49:43;;;;;;;210.70;90.63;;;17.10;60.00;;;;;;5028480;28;20280;-71
2022/06/01 08:52:09;;;;;;;235.43;82.60;;;17.10;60.60;;;;;;5010827;28;20306;-70
2022/06/01 08:54:35;;;;;;;222.50;82.17;;;17.10;60.60;;;;;;5027262;28;20307;-70
2022/06/01 08:57:12;;;;;;;286.30;97.17;;;17.00;60.00;;;;;;5027791;28;20312;-70
2022/06/01 08:59:39;;;;;;;179.07;65.73;;;16.90;59.50;;;;;;5028060;28;20428;-70
2022/06/01 09:02:34;;;;;;;139.00;66.23;;;16.60;61.40;;;;;;5027156;28;20284;-70
2022/06/01 09:05:13;;;;;;;158.47;70.20;;;16.30;63.60;;;;;;5011192;28;20284;-70
2022/06/01 09:07:52;;;;;;;122.23;53.43;;;16.10;63.60;;;;;;5028098;28;20451;-71
2022/06/01 09:10:47;;;;;;;149.70;51.83;;;15.90;64.70;;;;;;5011233;28;20791;-71
2022/06/01 09:13:23;;;;;;;132.00;62.87;;;15.70;66.60;;;;;;5018411;28;20286;-70
2022/06/01 09:15:58;;;;;;;83.77;37.80;;;15.40;67.90;;;;;;5027080;28;20294;-70
2022/06/01 09:18:28;;;;;;;;;;;15.20;70.10;;;;;;5018239;28;20326;-71
2022/06/01 09:23:40;;;;;;;132.57;52.92;;;14.70;69.60;;;;;;5043801;28;20291;-71
2022/06/01 09:26:06;;;;;;;63.60;27.20;;;14.50;70.30;;;;;;5027413;28;20045;-71
2022/06/01 09:28:39;;;;;;;51.33;24.80;;;14.30;70.40;;;;;;5010518;28;20284;-71
2022/06/01 09:31:33;;;;;;;79.27;30.67;;;14.20;71.30;;;;;;5010088;28;20056;-71
2022/06/01 09:34:22;;;;;;;93.67;35.97;;;14.10;72.10;;;;;;5026059;28;20291;-71
2022/06/01 09:37:07;;;;;;;48.50;30.47;;;14.00;72.10;;;;;;5010957;28;20300;-71
2022/06/01 09:39:35;;;;;;;70.60;27.10;;;13.80;72.10;;;;;;5033667;28;20399;-71
2022/06/01 09:42:13;;;;;;;43.17;24.13;;;13.70;72.10;;;;;;5010389;28;20811;-71
2022/06/01 09:44:44;;;;;;;70.23;31.30;;;13.60;73.10;;;;;;5010473;28;20280;-72
2022/06/01 09:47:34;;;;;;;34.80;21.33;;;13.60;73.90;;;;;;5027188;28;20346;-71
2022/06/01 09:50:01;;;;;;;30.57;17.70;;;13.60;73.80;;;;;;5026497;28;20680;-71
2022/06/01 09:52:40;;;;;;;39.43;24.90;;;13.70;74.10;;;;;;5010231;28;20600;-71
2022/06/01 09:55:21;;;;;;;64.03;30.03;;;13.80;74.50;;;;;;5026177;28;20823;-71
2022/06/01 09:58:08;;;;;;;30.10;20.63;;;14.00;74.40;;;;;;5010394;28;20391;-71
2022/06/01 10:06:25;;;;;;;56.97;22.37;;;14.10;73.70;;;;;;5042771;28;20103;-71
2022/06/01 10:09:12;;;;;;;31.17;23.27;;;14.30;74.40;;;;;;5027362;28;20374;-71
2022/06/01 10:11:46;;;;;;;56.07;24.67;;;14.50;74.40;;;;;;5026166;28;20049;-71
2022/06/01 10:14:20;;;;;;;51.63;29.37;;;14.80;73.50;;;;;;5026244;28;20280;-71
2022/06/01 10:16:58;;;;;;;58.00;26.45;;;15.00;72.40;;;;;;5002476;28;20313;-71
2022/06/01 10:19:41;;;;;;;43.70;24.30;;;15.20;71.20;;;;;;5023319;28;20051;-71
2022/06/01 10:22:20;;;;;;;73.00;34.07;;;15.40;69.90;;;;;;5009551;28;20287;-71
2022/06/01 10:25:30;;;;;;;102.17;42.97;;;15.50;70.50;;;;;;5008349;28;20298;-71
2022/06/01 10:28:06;;;;;;;84.97;37.30;;;15.60;69.10;;;;;;5000745;28;20381;-71
2022/06/01 10:30:43;;;;;;;109.93;43.30;;;15.60;69.40;;;;;;5025124;28;20307;-71
2022/06/01 10:33:17;;;;;;;102.43;35.50;;;15.70;69.20;;;;;;5009900;28;20276;-71
2022/06/01 10:35:46;;;;;;;82.17;32.10;;;15.90;69.00;;;;;;5025798;28;20280;-71
2022/06/01 10:38:15;;;;;;;90.50;40.83;;;16.10;69.10;;;;;;5025479;28;20376;-71
2022/06/01 10:40:47;;;;;;;127.20;51.33;;;16.50;68.10;;;;;;5026076;28;20739;-71
2022/06/01 10:43:31;;;;;;;112.33;51.50;;;16.80;66.00;;;;;;5009503;28;20272;-71
2022/06/01 10:46:18;;;;;;;99.77;47.10;;;16.80;65.10;;;;;;4992458;28;20792;-71
2022/06/01 10:49:14;;;;;;;104.07;36.87;;;16.60;64.70;;;;;;5022689;28;20284;-71
2022/06/01 10:51:40;;;;;;;83.00;45.17;;;16.30;65.80;;;;;;5017015;28;20295;-70
2022/06/01 10:54:28;;;;;;;62.17;35.47;;;15.80;67.60;;;;;;5024515;28;20306;-70
2022/06/01 10:56:55;;;;;;;79.30;33.63;;;15.30;70.20;;;;;;5042079;28;20049;-71
2022/06/01 10:59:24;;;;;;;46.10;25.70;;;14.70;73.60;;;;;;5024827;28;20658;-72
2022/06/01 11:01:51;;;;;;;68.87;33.53;;;14.20;74.40;;;;;;5009024;28;20338;-71
2022/06/01 11:04:47;;;;;;;52.80;19.50;;;13.50;74.90;;;;;;5024883;28;20284;-71
2022/06/01 11:07:27;;;;;;;55.10;24.53;;;12.80;71.50;;;;;;5001618;28;20780;-71
2022/06/01 11:10:10;;;;;;;22.57;14.97;;;11.90;70.10;;;;;;5025608;28;20788;-72
2022/06/01 11:13:12;;;;;;;16.98;10.68;;;11.20;73.00;;;;;;5005392;28;20727;-72
2022/06/01 11:16:11;;;;;;;8.50;6.97;;;10.70;76.90;;;;;;5002816;28;20045;-72
2022/06/01 11:19:18;;;;;;;10.52;7.13;;;10.40;79.70;;;;;;4989955;28;20077;-72
2022/06/01 11:22:07;;;;;;;17.95;11.13;;;10.40;81.90;;;;;;5022468;28;20041;-73
2022/06/01 11:25:10;;;;;;;28.55;13.30;;;10.40;83.00;;;;;;5025600;28;20045;-73
2022/06/01 11:28:14;;;;;;;17.67;14.82;;;10.60;84.20;;;;;;5026113;28;20065;-73
2022/06/01 11:30:52;;;;;;;27.42;19.15;;;10.80;84.90;;;;;;5023329;28;20056;-72
2022/06/01 11:33:32;;;;;;;22.02;17.55;;;11.10;85.50;;;;;;5025536;28;20525;-72
2022/06/01 11:36:21;;;;;;;63.78;40.40;;;11.40;85.70;;;;;;5009194;28;20442;-72
2022/06/01 11:38:52;;;;;;;39.47;34.73;;;11.80;86.60;;;;;;5002148;28;20114;-72
2022/06/01 11:41:31;;;;;;;78.13;44.53;;;12.40;87.20;;;;;;5004217;28;20749;-72
2022/06/01 11:44:08;;;;;;;83.80;58.87;;;12.90;87.10;;;;;;5025079;28;20765;-72
2022/06/01 11:46:53;;;;;;;78.30;47.07;;;13.30;87.10;;;;;;5007501;28;20294;-72
2022/06/01 11:49:44;;;;;;;241.63;127.20;;;13.70;87.20;;;;;;5015842;28;20306;-72
2022/06/01 11:52:22;;;;;;;121.90;72.57;;;14.10;87.20;;;;;;5007914;28;20045;-72
2022/06/01 11:55:23;;;;;;;217.57;124.57;;;14.40;86.90;;;;;;5024496;28;20300;-72
2022/06/01 11:58:01;;;;;;;217.40;145.77;;;14.80;86.90;;;;;;5005934;28;20315;-72
2022/06/01 12:00:36;;;;;;;333.73;174.40;;;14.90;86.40;;;;;;4999539;28;20371;-72
2022/06/01 12:03:25;;;;;;;239.07;129.63;;;14.80;85.90;;;;;;5024911;28;20399;-72
2022/06/01 12:06:06;;;;;;;307.27;176.97;;;14.70;85.10;;;;;;5005085;28;20049;-72
2022/06/01 12:08:35;;;;;;;378.67;202.33;;;14.50;85.50;;;;;;5023446;28;20280;-72
2022/06/01 12:11:04;;;;;;;375.07;209.70;;;14.50;86.00;;;;;;5023705;28;20288;-72
2022/06/01 12:13:36;;;;;;;415.63;203.13;;;14.50;86.10;;;;;;5024201;28;20375;-72
2022/06/01 12:16:18;;;;;;;363.80;178.10;;;14.50;86.30;;;;;;5023390;28;20375;-72
2022/06/01 12:19:11;;;;;;;424.73;208.63;;;14.60;86.00;;;;;;5016728;28;20292;-72
2022/06/01 12:21:43;;;;;;;328.83;173.37;;;14.80;85.20;;;;;;5024392;28;20697;-72
2022/06/01 12:30:14;;;;;;;479.20;245.30;;;15.00;82.00;;;;;;5014596;28;20292;-71
2022/06/01 12:32:59;;;;;;;538.07;247.47;;;14.90;82.50;;;;;;5023929;28;20331;-71
2022/06/01 12:35:29;;;;;;;453.40;230.93;;;14.90;83.60;;;;;;5023609;28;20357;-71
2022/06/01 12:38:03;;;;;;;469.80;243.33;;;14.90;83.80;;;;;;5024583;28;20300;-71
2022/06/01 12:40:29;;;;;;;433.20;232.83;;;15.10;84.60;;;;;;4997647;28;20284;-71
2022/06/01 12:43:00;;;;;;;420.20;183.47;;;15.20;84.50;;;;;;5024137;28;20287;-71
2022/06/01 12:45:35;;;;;;;432.53;249.47;;;15.20;84.30;;;;;;5023613;28;20295;-71
2022/06/01 12:48:12;;;;;;;362.27;194.95;;;15.20;84.20;;;;;;5022751;28;20331;-71
2022/06/01 12:50:49;;;;;;;345.50;168.67;;;15.30;84.40;;;;;;5026537;28;20507;-71
2022/06/01 12:53:19;;;;;;;417.87;236.63;;;15.60;84.10;;;;;;5026491;28;20719;-71
2022/06/01 12:55:47;;;;;;;497.20;241.07;;;15.70;83.50;;;;;;5017787;28;20307;-71
2022/06/01 12:58:17;;;;;;;590.43;335.00;;;15.90;83.60;;;;;;5044204;28;20292;-71
2022/06/01 13:00:50;;;;;;;703.93;404.30;;;16.00;76.90;;;;;;5011350;28;20601;-71
2022/06/01 13:03:18;;;;;;;731.97;498.77;;;16.00;76.20;;;;;;5010651;28;20307;-71
2022/06/01 13:05:47;;;;;;;752.77;510.60;;;16.00;71.60;;;;;;5027041;28;20283;-71
2022/06/01 13:08:29;;;;;;;690.43;470.87;;;15.80;67.60;;;;;;5010895;28;20277;-71
2022/06/01 13:10:55;;;;;;;514.83;300.73;;;15.90;74.30;;;;;;5010755;28;20852;-71
2022/06/01 13:13:29;;;;;;;542.50;290.93;;;16.10;76.70;;;;;;5010412;28;20379;-71
2022/06/01 13:16:00;;;;;;;696.90;424.90;;;16.10;77.70;;;;;;5009717;28;20292;-71